Time;durP1;ratioP1;P1;durP2;ratioP2;P2;SDS_P1;SDS_P2;PMS_P1;PMS_P2;Temp;Humidity;BMP_temperature;BMP_pressure;BME280_temperature;BME280_humidity;BME280_pressure;Samples;Min_cycle;Max_cycle;Signal;HPM_P1;HPM_P2
2023/09/29 00:00:14;;;;;;;11.40;7.88;;;;;;;;;;4964516;28;20046;-65
2023/09/29 00:02:41;;;;;;;13.13;8.88;;;;;;;;;;4962214;28;20047;-63
2023/09/29 00:05:10;;;;;;;16.45;8.80;;;;;;;;;;4954688;28;20075;-64
2023/09/29 00:07:37;;;;;;;13.63;8.05;;;;;;;;;;4954745;28;20051;-64
2023/09/29 00:10:08;;;;;;;12.02;7.53;;;;;;;;;;4954443;28;20069;-64
2023/09/29 00:12:35;;;;;;;11.85;7.32;;;;;;;;;;4954260;28;20059;-64
2023/09/29 00:15:03;;;;;;;12.98;8.15;;;;;;;;;;4958009;28;20051;-64
2023/09/29 00:17:32;;;;;;;11.32;7.68;;;;;;;;;;4958274;28;20126;-64
2023/09/29 00:19:58;;;;;;;12.23;8.13;;;;;;;;;;4954163;28;20082;-63
2023/09/29 00:22:25;;;;;;;12.60;8.05;;;;;;;;;;4953321;28;20126;-64
2023/09/29 00:24:53;;;;;;;13.13;8.02;;;;;;;;;;4954080;28;20083;-64
2023/09/29 00:27:20;;;;;;;10.88;7.40;;;;;;;;;;4962126;28;20470;-64
2023/09/29 00:29:47;;;;;;;12.02;7.88;;;;;;;;;;4959235;28;20053;-64
2023/09/29 00:32:14;;;;;;;13.18;8.32;;;;;;;;;;4960711;28;20059;-65
2023/09/29 00:34:42;;;;;;;12.93;8.60;;;;;;;;;;4958436;28;20051;-65
2023/09/29 00:37:09;;;;;;;13.35;8.32;;;;;;;;;;4957084;28;20054;-65
2023/09/29 00:39:36;;;;;;;11.25;7.70;;;;;;;;;;4958192;28;20478;-65
2023/09/29 00:42:06;;;;;;;11.65;7.97;;;;;;;;;;4955705;28;20047;-64
2023/09/29 00:44:33;;;;;;;9.63;6.77;;;;;;;;;;4956814;28;20102;-66
2023/09/29 00:47:00;;;;;;;12.32;7.47;;;;;;;;;;4960491;28;20281;-65
2023/09/29 00:49:29;;;;;;;13.80;8.73;;;;;;;;;;4956537;28;20118;-65
2023/09/29 00:52:00;;;;;;;12.27;7.78;;;;;;;;;;4956932;28;20055;-64
2023/09/29 00:54:27;;;;;;;;;;;;;;;;;;4955743;28;20130;-63
2023/09/29 00:56:55;;;;;;;11.50;8.10;;;;;;;;;;4962597;28;20285;-64
2023/09/29 00:59:24;;;;;;;11.73;8.20;;;;;;;;;;4955794;28;20446;-64
2023/09/29 01:01:51;;;;;;;10.27;7.30;;;;;;;;;;4953399;28;20078;-65
2023/09/29 01:04:18;;;;;;;10.90;7.45;;;;;;;;;;4953413;28;20440;-65
2023/09/29 01:06:45;;;;;;;10.15;7.10;;;;;;;;;;4953415;28;20145;-64
2023/09/29 01:09:14;;;;;;;10.45;6.45;;;;;;;;;;4955862;28;20527;-64
2023/09/29 01:11:43;;;;;;;9.40;6.78;;;;;;;;;;4955158;28;20055;-65
2023/09/29 01:14:11;;;;;;;11.05;7.65;;;;;;;;;;4953494;28;20422;-64
2023/09/29 01:16:38;;;;;;;11.82;7.70;;;;;;;;;;4953370;28;20051;-64
2023/09/29 01:19:11;;;;;;;13.15;7.90;;;;;;;;;;4953212;28;20130;-65
2023/09/29 01:21:38;;;;;;;9.13;6.40;;;;;;;;;;4953070;28;20047;-64
2023/09/29 01:24:07;;;;;;;9.55;6.03;;;;;;;;;;4953412;28;20051;-64
2023/09/29 01:26:33;;;;;;;8.38;6.13;;;;;;;;;;4953295;28;20047;-65
2023/09/29 01:29:00;;;;;;;8.75;5.93;;;;;;;;;;4953494;28;20101;-65
2023/09/29 01:31:27;;;;;;;10.02;6.15;;;;;;;;;;4953025;28;20051;-64
2023/09/29 01:33:54;;;;;;;9.00;6.45;;;;;;;;;;4954640;28;20058;-65
2023/09/29 01:36:21;;;;;;;11.18;6.90;;;;;;;;;;4953232;28;20051;-64
2023/09/29 01:38:48;;;;;;;7.85;5.57;;;;;;;;;;4953165;28;20098;-65
2023/09/29 01:41:16;;;;;;;10.32;6.85;;;;;;;;;;4953058;28;20047;-65
2023/09/29 01:43:43;;;;;;;10.95;6.63;;;;;;;;;;4953118;28;20495;-64
2023/09/29 01:46:11;;;;;;;10.57;6.30;;;;;;;;;;4953027;28;20078;-64
2023/09/29 01:48:38;;;;;;;9.43;5.75;;;;;;;;;;4953133;28;20051;-65
2023/09/29 01:51:04;;;;;;;10.77;6.72;;;;;;;;;;4955539;28;20474;-64
2023/09/29 01:53:31;;;;;;;10.40;6.35;;;;;;;;;;4953631;28;20044;-64
2023/09/29 01:55:58;;;;;;;10.07;6.35;;;;;;;;;;4964805;28;20054;-65
2023/09/29 01:58:26;;;;;;;10.20;6.75;;;;;;;;;;4972236;28;20081;-65
2023/09/29 02:00:54;;;;;;;9.20;6.47;;;;;;;;;;4972145;28;20130;-64
2023/09/29 02:03:21;;;;;;;9.48;6.03;;;;;;;;;;4972054;28;20053;-64
2023/09/29 02:05:47;;;;;;;11.88;6.55;;;;;;;;;;4972314;28;20129;-64
2023/09/29 02:08:14;;;;;;;11.15;6.60;;;;;;;;;;4972247;28;20618;-63
2023/09/29 02:10:41;;;;;;;11.30;6.40;;;;;;;;;;4971924;28;20046;-64
2023/09/29 02:13:08;;;;;;;10.18;6.60;;;;;;;;;;4972099;28;20082;-64
2023/09/29 02:15:36;;;;;;;10.07;6.63;;;;;;;;;;4972025;28;20050;-64
2023/09/29 02:18:04;;;;;;;10.02;6.40;;;;;;;;;;4965420;28;20062;-65
2023/09/29 02:20:31;;;;;;;9.38;6.20;;;;;;;;;;4984207;28;20470;-64
2023/09/29 02:22:59;;;;;;;9.90;6.43;;;;;;;;;;4975170;28;20486;-65
2023/09/29 02:25:26;;;;;;;10.02;6.22;;;;;;;;;;4976804;28;20047;-64
2023/09/29 02:27:54;;;;;;;9.75;6.30;;;;;;;;;;4989559;28;20050;-64
2023/09/29 02:30:21;;;;;;;10.23;6.30;;;;;;;;;;4974779;28;20047;-65
2023/09/29 02:32:52;;;;;;;11.05;5.88;;;;;;;;;;4986035;28;20066;-64
2023/09/29 02:35:19;;;;;;;10.02;6.53;;;;;;;;;;4952621;28;20102;-65
2023/09/29 02:37:46;;;;;;;7.60;5.53;;;;;;;;;;4952431;28;20090;-63
2023/09/29 02:40:15;;;;;;;11.30;5.90;;;;;;;;;;4952268;28;20055;-64
2023/09/29 02:42:42;;;;;;;8.75;5.75;;;;;;;;;;4952382;28;20515;-64
2023/09/29 02:45:10;;;;;;;7.57;4.80;;;;;;;;;;4962468;28;20039;-63
2023/09/29 02:47:39;;;;;;;8.13;4.90;;;;;;;;;;4991991;28;20145;-64
2023/09/29 02:50:09;;;;;;;6.32;4.55;;;;;;;;;;4955789;28;20127;-64
2023/09/29 02:52:36;;;;;;;8.25;4.53;;;;;;;;;;4955719;28;20059;-63
2023/09/29 02:55:05;;;;;;;7.88;4.80;;;;;;;;;;4955718;28;20134;-63
2023/09/29 02:57:32;;;;;;;7.05;4.25;;;;;;;;;;4955901;28;20051;-65
2023/09/29 02:59:58;;;;;;;7.82;4.78;;;;;;;;;;4966836;28;20082;-64
2023/09/29 03:02:25;;;;;;;7.70;4.70;;;;;;;;;;4974807;28;20129;-63
2023/09/29 03:04:52;;;;;;;7.80;4.90;;;;;;;;;;4974769;28;20093;-64
2023/09/29 03:07:20;;;;;;;7.93;4.03;;;;;;;;;;4974825;28;20047;-65
2023/09/29 03:09:46;;;;;;;8.02;4.22;;;;;;;;;;4974479;28;20054;-64
2023/09/29 03:12:13;;;;;;;7.00;4.72;;;;;;;;;;4974717;28;20499;-64
2023/09/29 03:14:40;;;;;;;8.43;5.00;;;;;;;;;;4981837;28;20050;-64
2023/09/29 03:17:06;;;;;;;10.25;6.60;;;;;;;;;;4983715;28;20131;-64
2023/09/29 03:19:34;;;;;;;9.20;5.40;;;;;;;;;;4955160;28;20083;-65
2023/09/29 03:22:01;;;;;;;10.70;5.95;;;;;;;;;;4954955;28;20058;-65
2023/09/29 03:24:29;;;;;;;9.68;5.50;;;;;;;;;;4968847;28;20057;-63
2023/09/29 03:26:56;;;;;;;9.57;5.82;;;;;;;;;;4984712;28;20111;-63
2023/09/29 03:29:23;;;;;;;10.95;5.60;;;;;;;;;;4954847;28;20051;-63
2023/09/29 03:31:52;;;;;;;9.32;5.78;;;;;;;;;;4978030;28;20465;-64
2023/09/29 03:34:19;;;;;;;8.40;5.60;;;;;;;;;;4986183;28;20151;-63
2023/09/29 03:36:46;;;;;;;9.40;6.18;;;;;;;;;;4972216;28;20128;-64
2023/09/29 03:39:14;;;;;;;10.13;6.03;;;;;;;;;;4979250;28;20039;-64
2023/09/29 03:41:43;;;;;;;10.63;5.85;;;;;;;;;;4973265;28;20051;-63
2023/09/29 03:44:12;;;;;;;9.43;5.68;;;;;;;;;;4955083;28;20133;-63
2023/09/29 03:46:38;;;;;;;9.30;5.63;;;;;;;;;;4954797;28;20129;-63
2023/09/29 03:49:05;;;;;;;8.45;5.00;;;;;;;;;;4954705;28;20445;-65
2023/09/29 03:51:33;;;;;;;8.40;5.15;;;;;;;;;;4954483;28;20043;-64
2023/09/29 03:54:00;;;;;;;7.93;5.00;;;;;;;;;;4960870;28;20074;-64
2023/09/29 03:56:26;;;;;;;11.10;6.15;;;;;;;;;;4989489;28;20056;-64
2023/09/29 03:58:55;;;;;;;7.95;5.30;;;;;;;;;;4955403;28;20059;-63
2023/09/29 04:01:22;;;;;;;9.45;5.63;;;;;;;;;;4954373;28;20063;-64
2023/09/29 04:03:49;;;;;;;8.60;4.85;;;;;;;;;;4954443;28;20126;-63
2023/09/29 04:06:16;;;;;;;10.18;5.38;;;;;;;;;;4954378;28;20051;-63
2023/09/29 04:08:43;;;;;;;7.53;4.43;;;;;;;;;;4954607;28;20514;-62
2023/09/29 04:11:10;;;;;;;8.10;5.03;;;;;;;;;;4954399;28;20566;-61
2023/09/29 04:13:37;;;;;;;9.80;5.18;;;;;;;;;;4954185;28;20051;-63
2023/09/29 04:16:05;;;;;;;8.27;4.82;;;;;;;;;;4954561;28;20165;-64
2023/09/29 04:18:32;;;;;;;8.48;4.70;;;;;;;;;;4962206;28;20087;-66
2023/09/29 04:21:00;;;;;;;8.93;5.47;;;;;;;;;;4954385;28;20047;-65
2023/09/29 04:23:27;;;;;;;7.53;4.60;;;;;;;;;;4954436;28;20053;-64
2023/09/29 04:25:54;;;;;;;7.70;4.45;;;;;;;;;;4954317;28;20055;-65
2023/09/29 04:28:21;;;;;;;9.07;4.30;;;;;;;;;;4964960;28;20104;-63
2023/09/29 04:30:47;;;;;;;8.05;4.03;;;;;;;;;;4969790;28;20085;-64
2023/09/29 04:33:15;;;;;;;8.32;4.85;;;;;;;;;;4967565;28;20086;-63
2023/09/29 04:35:42;;;;;;;9.18;4.45;;;;;;;;;;4973340;28;20477;-63
2023/09/29 04:38:09;;;;;;;7.03;4.00;;;;;;;;;;4973333;28;20545;-64
2023/09/29 04:40:37;;;;;;;9.68;5.63;;;;;;;;;;4956519;28;20050;-64
2023/09/29 04:43:05;;;;;;;8.80;5.05;;;;;;;;;;4954322;28;20058;-64
2023/09/29 04:45:33;;;;;;;7.82;4.43;;;;;;;;;;4953800;28;20051;-64
2023/09/29 04:48:00;;;;;;;7.45;4.70;;;;;;;;;;4954216;28;20043;-63
2023/09/29 04:50:28;;;;;;;9.55;5.18;;;;;;;;;;4954128;28;20047;-62
2023/09/29 04:52:55;;;;;;;12.15;6.10;;;;;;;;;;4953710;28;20106;-62
2023/09/29 04:55:22;;;;;;;8.68;5.10;;;;;;;;;;4953773;28;20057;-63
2023/09/29 04:57:50;;;;;;;12.27;5.82;;;;;;;;;;4953617;28;20137;-64
2023/09/29 05:00:17;;;;;;;10.07;6.30;;;;;;;;;;4953833;28;20050;-66
2023/09/29 05:02:44;;;;;;;9.60;5.85;;;;;;;;;;4954253;28;20063;-64
2023/09/29 05:05:11;;;;;;;10.25;5.50;;;;;;;;;;4954128;28;20057;-65
2023/09/29 05:07:39;;;;;;;8.93;4.88;;;;;;;;;;4954136;28;20138;-63
2023/09/29 05:10:07;;;;;;;9.35;5.00;;;;;;;;;;4953922;28;20443;-64
2023/09/29 05:12:35;;;;;;;9.13;5.53;;;;;;;;;;4953767;28;20051;-65
2023/09/29 05:15:02;;;;;;;9.38;5.30;;;;;;;;;;4957963;28;20043;-63
2023/09/29 05:17:28;;;;;;;8.32;4.88;;;;;;;;;;4968023;28;20121;-63
2023/09/29 05:19:55;;;;;;;9.35;5.22;;;;;;;;;;4972856;28;20093;-64
2023/09/29 05:22:22;;;;;;;9.18;5.00;;;;;;;;;;4973141;28;20406;-64
2023/09/29 05:24:52;;;;;;;8.65;5.07;;;;;;;;;;4972862;28;20082;-64
2023/09/29 05:27:19;;;;;;;8.25;5.22;;;;;;;;;;4977092;28;20046;-64
2023/09/29 05:29:45;;;;;;;10.35;6.85;;;;;;;;;;4988210;28;20057;-63
2023/09/29 05:32:12;;;;;;;13.20;6.20;;;;;;;;;;4959004;28;20127;-63
2023/09/29 05:34:40;;;;;;;9.73;5.45;;;;;;;;;;4972859;28;20047;-64
2023/09/29 05:37:06;;;;;;;9.35;5.68;;;;;;;;;;4960868;28;20131;-64
2023/09/29 05:39:33;;;;;;;9.75;6.28;;;;;;;;;;4961783;28;20134;-62
2023/09/29 05:42:01;;;;;;;10.13;5.50;;;;;;;;;;4985120;28;20212;-64
2023/09/29 05:44:28;;;;;;;12.23;5.00;;;;;;;;;;4967972;28;20122;-62
2023/09/29 05:46:54;;;;;;;9.80;5.30;;;;;;;;;;4964335;28;20049;-64
2023/09/29 05:49:21;;;;;;;8.70;5.10;;;;;;;;;;4964598;28;20093;-64
2023/09/29 05:51:48;;;;;;;9.23;5.30;;;;;;;;;;4972683;28;20541;-63
2023/09/29 05:54:16;;;;;;;9.65;5.60;;;;;;;;;;4972752;28;20054;-63
2023/09/29 05:56:42;;;;;;;10.82;5.55;;;;;;;;;;4972684;28;20564;-63
2023/09/29 05:59:10;;;;;;;9.75;5.57;;;;;;;;;;4972851;28;20707;-65
2023/09/29 06:01:37;;;;;;;8.98;5.05;;;;;;;;;;4972815;28;20053;-65
2023/09/29 06:04:04;;;;;;;9.23;5.30;;;;;;;;;;4964689;28;20061;-63
2023/09/29 06:06:31;;;;;;;10.05;5.40;;;;;;;;;;4972880;28;20131;-64
2023/09/29 06:08:59;;;;;;;9.13;5.40;;;;;;;;;;4964584;28;20058;-64
2023/09/29 06:11:25;;;;;;;11.60;6.00;;;;;;;;;;4972437;28;20082;-64
2023/09/29 06:13:52;;;;;;;7.95;5.15;;;;;;;;;;4964413;28;20078;-63
2023/09/29 06:16:20;;;;;;;11.45;5.85;;;;;;;;;;4972573;28;20094;-64
2023/09/29 06:18:47;;;;;;;9.90;6.05;;;;;;;;;;4970527;28;20090;-64
2023/09/29 06:21:15;;;;;;;13.45;7.05;;;;;;;;;;4955144;28;20058;-66
2023/09/29 06:23:42;;;;;;;11.95;6.35;;;;;;;;;;4958425;28;20531;-62
2023/09/29 06:26:09;;;;;;;11.57;6.22;;;;;;;;;;4975995;28;20078;-63
2023/09/29 06:28:38;;;;;;;10.43;5.45;;;;;;;;;;4976096;28;20101;-65
2023/09/29 06:31:06;;;;;;;9.55;5.38;;;;;;;;;;4984963;28;20057;-62
2023/09/29 06:33:34;;;;;;;9.98;5.13;;;;;;;;;;4975177;28;20400;-64
2023/09/29 06:36:00;;;;;;;9.27;6.00;;;;;;;;;;4965494;28;20057;-65
2023/09/29 06:38:28;;;;;;;8.85;5.13;;;;;;;;;;4969494;28;20047;-64
2023/09/29 06:40:57;;;;;;;9.13;5.65;;;;;;;;;;4969088;28;20039;-64
2023/09/29 06:43:23;;;;;;;9.15;4.95;;;;;;;;;;4968410;28;20046;-63
2023/09/29 06:45:50;;;;;;;8.05;4.90;;;;;;;;;;4974873;28;20466;-65
2023/09/29 06:48:17;;;;;;;12.63;5.13;;;;;;;;;;4975590;28;20057;-64
2023/09/29 06:50:45;;;;;;;9.13;4.57;;;;;;;;;;4971970;28;20407;-62
2023/09/29 06:53:11;;;;;;;10.30;5.53;;;;;;;;;;4974220;28;20051;-63
2023/09/29 06:55:38;;;;;;;9.55;5.20;;;;;;;;;;4975415;28;20090;-62
2023/09/29 06:58:05;;;;;;;9.02;4.85;;;;;;;;;;4975645;28;20078;-63
2023/09/29 07:00:32;;;;;;;10.40;5.65;;;;;;;;;;4975241;28;20047;-64
2023/09/29 07:02:58;;;;;;;11.93;6.35;;;;;;;;;;4955890;28;20044;-62
2023/09/29 07:05:25;;;;;;;9.75;5.18;;;;;;;;;;4976314;28;20545;-64
2023/09/29 07:07:54;;;;;;;12.35;6.25;;;;;;;;;;4972354;28;20050;-63
2023/09/29 07:10:21;;;;;;;12.02;5.95;;;;;;;;;;4973527;28;20051;-63
2023/09/29 07:12:49;;;;;;;11.57;5.22;;;;;;;;;;4982447;28;20071;-63
2023/09/29 07:15:15;;;;;;;10.20;5.40;;;;;;;;;;4955831;28;20075;-64
2023/09/29 07:17:42;;;;;;;14.02;6.28;;;;;;;;;;4967750;28;20046;-66
2023/09/29 07:20:10;;;;;;;11.02;5.90;;;;;;;;;;4970520;28;20583;-62
2023/09/29 07:22:36;;;;;;;10.82;5.75;;;;;;;;;;4972026;28;20562;-64
2023/09/29 07:25:06;;;;;;;9.75;5.65;;;;;;;;;;4971275;28;20539;-60
2023/09/29 07:27:33;;;;;;;11.50;5.60;;;;;;;;;;4967403;28;20647;-61
2023/09/29 07:29:59;;;;;;;8.60;4.88;;;;;;;;;;4972661;28;20106;-61
2023/09/29 07:32:26;;;;;;;9.43;5.65;;;;;;;;;;4963944;28;20534;-61
2023/09/29 07:34:53;;;;;;;9.35;5.65;;;;;;;;;;4979282;28;20053;-61
2023/09/29 07:37:20;;;;;;;8.70;4.70;;;;;;;;;;4985723;28;20600;-62
2023/09/29 07:39:46;;;;;;;9.80;4.72;;;;;;;;;;4985802;28;20454;-59
2023/09/29 07:42:17;;;;;;;8.75;4.78;;;;;;;;;;4982857;28;20462;-60
2023/09/29 07:44:43;;;;;;;;;;;;;;;;;;4983008;28;20050;-61
2023/09/29 07:47:10;;;;;;;11.77;6.10;;;;;;;;;;4974748;28;20025;-61
2023/09/29 07:49:40;;;;;;;9.88;4.55;;;;;;;;;;4982786;28;20050;-61
2023/09/29 07:52:07;;;;;;;7.85;4.22;;;;;;;;;;4984774;28;20106;-62
2023/09/29 07:54:34;;;;;;;7.07;4.03;;;;;;;;;;4977577;28;20054;-60
2023/09/29 07:57:01;;;;;;;7.75;4.10;;;;;;;;;;4991306;28;20093;-61
2023/09/29 07:59:29;;;;;;;8.35;4.63;;;;;;;;;;4979609;28;20105;-62
2023/09/29 08:01:58;;;;;;;10.18;4.75;;;;;;;;;;4975550;28;20070;-62
2023/09/29 08:04:25;;;;;;;9.20;4.53;;;;;;;;;;4985266;28;20050;-62
2023/09/29 08:06:51;;;;;;;8.98;4.88;;;;;;;;;;4966325;28;20085;-62
2023/09/29 08:09:18;;;;;;;9.38;4.90;;;;;;;;;;4967119;28;20129;-61
2023/09/29 08:11:45;;;;;;;9.88;5.20;;;;;;;;;;4980325;28;20129;-62
2023/09/29 08:14:12;;;;;;;8.30;4.80;;;;;;;;;;4984698;28;20101;-62
2023/09/29 08:16:41;;;;;;;9.68;5.20;;;;;;;;;;4978128;28;20066;-59
2023/09/29 08:19:08;;;;;;;8.15;4.78;;;;;;;;;;4987057;28;20426;-60
2023/09/29 08:21:35;;;;;;;10.75;5.30;;;;;;;;;;4987765;28;20755;-61
2023/09/29 08:24:03;;;;;;;8.48;5.43;;;;;;;;;;4984993;28;20141;-61
2023/09/29 08:26:30;;;;;;;8.73;4.78;;;;;;;;;;4986023;28;20062;-61
2023/09/29 08:28:58;;;;;;;9.73;4.55;;;;;;;;;;4986303;28;20046;-61
2023/09/29 08:31:25;;;;;;;6.93;4.13;;;;;;;;;;4991306;28;20050;-60
2023/09/29 08:33:53;;;;;;;8.80;3.80;;;;;;;;;;4977218;28;20057;-61
2023/09/29 08:36:20;;;;;;;6.60;3.33;;;;;;;;;;4978784;28;20134;-61
2023/09/29 08:38:46;;;;;;;8.75;4.38;;;;;;;;;;4984634;28;20133;-59
2023/09/29 08:41:16;;;;;;;6.05;3.63;;;;;;;;;;4978317;28;20050;-60
2023/09/29 08:43:44;;;;;;;7.80;4.18;;;;;;;;;;4979419;28;20046;-59
2023/09/29 08:46:15;;;;;;;7.35;3.97;;;;;;;;;;4979125;28;20458;-60
2023/09/29 08:48:43;;;;;;;6.88;3.85;;;;;;;;;;4981581;28;20477;-61
2023/09/29 08:51:14;;;;;;;7.25;4.13;;;;;;;;;;4977476;28;20561;-60
2023/09/29 08:53:41;;;;;;;7.47;4.20;;;;;;;;;;4974781;28;20133;-61
2023/09/29 08:56:11;;;;;;;8.02;4.10;;;;;;;;;;4975343;28;20046;-60
2023/09/29 08:58:38;;;;;;;6.22;3.70;;;;;;;;;;4990191;28;20105;-61
2023/09/29 09:01:05;;;;;;;7.32;3.80;;;;;;;;;;4985713;28;20065;-61
2023/09/29 09:03:32;;;;;;;7.30;4.03;;;;;;;;;;4982023;28;20082;-65
2023/09/29 09:05:59;;;;;;;7.63;4.30;;;;;;;;;;4964264;28;20050;-63
2023/09/29 09:08:27;;;;;;;7.10;4.10;;;;;;;;;;4965950;28;20100;-61
2023/09/29 09:10:58;;;;;;;10.18;4.57;;;;;;;;;;4969388;28;20388;-63
2023/09/29 09:13:26;;;;;;;8.65;4.70;;;;;;;;;;4970228;28;20388;-64
2023/09/29 09:15:57;;;;;;;9.10;4.75;;;;;;;;;;4965321;28;20049;-63
2023/09/29 09:18:25;;;;;;;8.23;4.28;;;;;;;;;;4968566;28;20051;-64
2023/09/29 09:20:53;;;;;;;9.70;5.18;;;;;;;;;;4964744;28;20046;-64
2023/09/29 09:23:19;;;;;;;8.43;4.55;;;;;;;;;;4966162;28;20078;-64
2023/09/29 09:25:48;;;;;;;8.50;5.22;;;;;;;;;;4964912;28;20043;-63
2023/09/29 09:28:19;;;;;;;7.80;4.20;;;;;;;;;;4960650;28;20353;-65
2023/09/29 09:30:46;;;;;;;7.90;5.00;;;;;;;;;;4963225;28;21387;-63
2023/09/29 09:33:22;;;;;;;7.45;4.38;;;;;;;;;;4965772;28;20109;-62
2023/09/29 09:35:49;;;;;;;8.25;4.60;;;;;;;;;;4972932;28;20134;-63
2023/09/29 09:38:16;;;;;;;8.77;4.50;;;;;;;;;;4969861;28;20059;-64
2023/09/29 09:40:44;;;;;;;10.02;4.93;;;;;;;;;;4973563;28;20355;-64
2023/09/29 09:43:12;;;;;;;8.35;4.57;;;;;;;;;;4973939;28;20062;-64
2023/09/29 09:45:41;;;;;;;7.70;4.32;;;;;;;;;;4971824;28;20054;-64
2023/09/29 09:48:09;;;;;;;8.02;4.13;;;;;;;;;;4978433;28;20115;-64
2023/09/29 09:50:37;;;;;;;8.95;4.35;;;;;;;;;;4975948;28;20196;-64
2023/09/29 09:53:08;;;;;;;8.23;4.22;;;;;;;;;;4971495;28;20530;-63
2023/09/29 09:55:39;;;;;;;7.40;4.57;;;;;;;;;;4976604;28;20123;-61
2023/09/29 09:58:09;;;;;;;6.57;4.13;;;;;;;;;;4990079;28;20081;-61
2023/09/29 10:00:41;;;;;;;6.53;4.60;;;;;;;;;;4975441;28;20426;-61
2023/09/29 10:03:11;;;;;;;8.02;4.45;;;;;;;;;;4969583;28;20050;-60
2023/09/29 10:05:40;;;;;;;7.40;4.20;;;;;;;;;;4973565;28;20181;-63
2023/09/29 10:08:10;;;;;;;7.87;4.33;;;;;;;;;;4973278;28;20085;-63
2023/09/29 10:10:38;;;;;;;9.02;4.07;;;;;;;;;;4981391;28;20055;-63
2023/09/29 10:13:07;;;;;;;8.98;4.40;;;;;;;;;;4981989;28;20089;-62
2023/09/29 10:15:35;;;;;;;8.15;4.38;;;;;;;;;;4977214;28;20125;-63
2023/09/29 10:18:16;;;;;;;7.10;3.85;;;;;;;;;;4977600;28;20057;-64
2023/09/29 10:20:43;;;;;;;7.20;3.97;;;;;;;;;;4979566;28;20046;-64
2023/09/29 10:23:14;;;;;;;7.22;3.60;;;;;;;;;;4979942;28;20129;-63
2023/09/29 10:25:44;;;;;;;6.65;3.58;;;;;;;;;;4977893;28;20054;-63
2023/09/29 10:28:12;;;;;;;6.22;3.72;;;;;;;;;;4985190;28;20585;-63
2023/09/29 10:30:40;;;;;;;7.95;4.20;;;;;;;;;;4978115;28;20491;-63
2023/09/29 10:33:11;;;;;;;8.07;4.18;;;;;;;;;;4966532;28;20047;-62
2023/09/29 10:35:45;;;;;;;6.68;3.72;;;;;;;;;;4971151;28;20061;-62
2023/09/29 10:38:12;;;;;;;6.32;3.67;;;;;;;;;;4968809;28;20059;-63
2023/09/29 10:40:41;;;;;;;5.90;3.35;;;;;;;;;;4982771;28;20501;-63
2023/09/29 10:43:09;;;;;;;5.88;3.42;;;;;;;;;;4981169;28;20145;-63
2023/09/29 10:45:37;;;;;;;6.55;3.28;;;;;;;;;;4972030;28;20074;-62
2023/09/29 10:48:06;;;;;;;6.47;4.00;;;;;;;;;;4977992;28;20047;-63
2023/09/29 10:50:46;;;;;;;5.97;3.47;;;;;;;;;;4968344;28;20082;-60
2023/09/29 10:53:13;;;;;;;8.18;3.65;;;;;;;;;;4967510;28;20081;-62
2023/09/29 10:55:44;;;;;;;6.57;3.60;;;;;;;;;;4971035;28;20525;-64
2023/09/29 10:58:11;;;;;;;6.78;3.58;;;;;;;;;;4967268;28;20046;-62
2023/09/29 11:00:42;;;;;;;5.72;3.05;;;;;;;;;;4970291;28;20045;-64
2023/09/29 11:03:11;;;;;;;7.10;3.53;;;;;;;;;;4973387;28;20219;-64
2023/09/29 11:05:49;;;;;;;7.00;3.15;;;;;;;;;;4981360;28;20050;-64
2023/09/29 11:08:19;;;;;;;5.88;3.83;;;;;;;;;;4973564;28;20046;-64
2023/09/29 11:10:55;;;;;;;5.68;3.00;;;;;;;;;;4973041;28;20047;-64
2023/09/29 11:13:21;;;;;;;5.80;2.95;;;;;;;;;;4973717;28;20074;-61
2023/09/29 11:15:48;;;;;;;7.63;4.07;;;;;;;;;;4966700;28;20473;-62
2023/09/29 11:18:26;;;;;;;5.65;3.22;;;;;;;;;;4966040;28;20479;-63
2023/09/29 11:20:54;;;;;;;5.75;3.03;;;;;;;;;;4966838;28;20051;-65
2023/09/29 11:23:21;;;;;;;6.90;3.65;;;;;;;;;;4968246;28;20344;-63
2023/09/29 11:25:49;;;;;;;6.65;3.40;;;;;;;;;;4971839;28;20411;-62
2023/09/29 11:28:16;;;;;;;6.97;3.00;;;;;;;;;;4974498;28;20078;-66
2023/09/29 11:30:43;;;;;;;6.88;3.40;;;;;;;;;;4972997;28;20141;-66
2023/09/29 11:33:11;;;;;;;5.57;2.80;;;;;;;;;;4969269;28;20046;-67
2023/09/29 11:35:38;;;;;;;6.28;3.13;;;;;;;;;;4968481;28;20058;-63
2023/09/29 11:38:06;;;;;;;5.18;3.20;;;;;;;;;;4976817;28;20130;-62
2023/09/29 11:40:33;;;;;;;5.35;2.90;;;;;;;;;;4977524;28;20155;-63
2023/09/29 11:43:00;;;;;;;6.78;3.00;;;;;;;;;;4969204;28;20181;-62
2023/09/29 11:45:27;;;;;;;5.97;3.45;;;;;;;;;;4971773;28;20131;-62
2023/09/29 11:47:53;;;;;;;6.93;3.80;;;;;;;;;;4969509;28;20140;-61
2023/09/29 11:50:21;;;;;;;5.28;2.60;;;;;;;;;;4975247;28;20463;-63
2023/09/29 11:52:47;;;;;;;8.02;3.60;;;;;;;;;;4967116;28;20075;-64
2023/09/29 11:55:18;;;;;;;7.72;4.13;;;;;;;;;;4972400;28;20073;-64
2023/09/29 11:57:45;;;;;;;9.60;3.38;;;;;;;;;;4970329;28;20062;-63
2023/09/29 12:00:14;;;;;;;5.85;2.90;;;;;;;;;;4972790;28;20042;-64
2023/09/29 12:02:41;;;;;;;5.45;3.50;;;;;;;;;;4970510;28;20615;-64
2023/09/29 12:05:09;;;;;;;5.47;3.30;;;;;;;;;;4980060;28;20509;-63
2023/09/29 12:07:36;;;;;;;5.68;2.95;;;;;;;;;;4973426;28;20100;-65
2023/09/29 12:10:03;;;;;;;6.60;2.53;;;;;;;;;;4964647;28;20539;-64
2023/09/29 12:12:32;;;;;;;6.40;2.67;;;;;;;;;;4971518;28;20141;-64
2023/09/29 12:14:59;;;;;;;5.57;3.00;;;;;;;;;;4966277;28;20046;-64
2023/09/29 12:17:26;;;;;;;7.30;3.58;;;;;;;;;;4971404;28;20050;-64
2023/09/29 12:19:53;;;;;;;5.35;2.92;;;;;;;;;;4972225;28;20050;-65
2023/09/29 12:22:19;;;;;;;5.18;2.70;;;;;;;;;;4970350;28;20170;-64
2023/09/29 12:24:46;;;;;;;5.60;3.25;;;;;;;;;;4975448;28;20101;-64
2023/09/29 12:27:13;;;;;;;6.63;2.60;;;;;;;;;;4964814;28;20130;-64
2023/09/29 12:29:41;;;;;;;6.57;2.75;;;;;;;;;;4966793;28;20050;-63
2023/09/29 12:32:08;;;;;;;5.43;2.97;;;;;;;;;;4969424;28;20130;-64
2023/09/29 12:34:35;;;;;;;5.03;2.67;;;;;;;;;;4969503;28;20055;-64
2023/09/29 12:37:02;;;;;;;5.97;2.88;;;;;;;;;;4967160;28;20071;-63
2023/09/29 12:39:29;;;;;;;5.68;3.22;;;;;;;;;;4968846;28;20185;-62
2023/09/29 12:41:56;;;;;;;5.35;2.72;;;;;;;;;;4970356;28;20062;-64
2023/09/29 12:44:22;;;;;;;5.93;3.17;;;;;;;;;;4966059;28;20046;-65
2023/09/29 12:46:51;;;;;;;6.50;2.78;;;;;;;;;;4968592;28;20047;-64
2023/09/29 12:49:18;;;;;;;5.90;3.40;;;;;;;;;;4967839;28;20186;-64
2023/09/29 12:51:45;;;;;;;5.75;3.13;;;;;;;;;;4963374;28;20043;-65
2023/09/29 12:54:11;;;;;;;6.88;2.92;;;;;;;;;;4973579;28;20053;-65
2023/09/29 12:56:38;;;;;;;6.85;3.40;;;;;;;;;;4965581;28;20047;-65
2023/09/29 12:59:06;;;;;;;4.85;2.80;;;;;;;;;;4964546;28;20047;-65
2023/09/29 13:01:34;;;;;;;5.43;3.03;;;;;;;;;;4975173;28;20054;-63
2023/09/29 13:04:02;;;;;;;5.93;3.05;;;;;;;;;;4969414;28;20109;-64
2023/09/29 13:06:28;;;;;;;7.00;3.53;;;;;;;;;;4967060;28;20422;-64
2023/09/29 13:08:56;;;;;;;7.97;3.47;;;;;;;;;;4972634;28;20051;-64
2023/09/29 13:11:23;;;;;;;7.85;3.17;;;;;;;;;;4971966;28;20050;-65
2023/09/29 13:13:49;;;;;;;6.32;3.58;;;;;;;;;;4964728;28;20102;-65
2023/09/29 13:16:16;;;;;;;6.00;3.72;;;;;;;;;;4961080;28;20114;-65
2023/09/29 13:18:43;;;;;;;6.55;3.25;;;;;;;;;;4977051;28;20474;-64
2023/09/29 13:21:11;;;;;;;6.38;3.08;;;;;;;;;;4966873;28;20047;-64
2023/09/29 13:23:38;;;;;;;5.75;2.95;;;;;;;;;;4972383;28;20043;-64
2023/09/29 13:26:05;;;;;;;13.02;4.38;;;;;;;;;;4963828;28;20138;-63
2023/09/29 13:28:32;;;;;;;6.13;3.10;;;;;;;;;;4970880;28;20089;-65
2023/09/29 13:30:58;;;;;;;5.40;2.88;;;;;;;;;;4961196;28;20118;-65
2023/09/29 13:33:27;;;;;;;5.30;2.78;;;;;;;;;;4967073;28;20097;-63
2023/09/29 13:35:53;;;;;;;4.70;2.90;;;;;;;;;;4963452;28;20415;-64
2023/09/29 13:38:21;;;;;;;6.07;3.20;;;;;;;;;;4968194;28;20042;-64
2023/09/29 13:40:52;;;;;;;9.88;3.42;;;;;;;;;;4966701;28;20072;-64
2023/09/29 13:43:19;;;;;;;6.20;3.08;;;;;;;;;;4967892;28;20413;-64
2023/09/29 13:45:46;;;;;;;5.20;3.00;;;;;;;;;;4966279;28;20070;-64
2023/09/29 13:48:14;;;;;;;5.00;3.25;;;;;;;;;;4957849;28;20055;-63
2023/09/29 13:50:41;;;;;;;6.60;3.28;;;;;;;;;;4969445;28;20050;-64
2023/09/29 13:53:07;;;;;;;5.75;3.75;;;;;;;;;;4975417;28;20053;-63
2023/09/29 13:55:36;;;;;;;5.53;3.10;;;;;;;;;;4978216;28;20089;-65
2023/09/29 13:58:03;;;;;;;5.70;2.80;;;;;;;;;;4965259;28;20087;-64
2023/09/29 14:00:31;;;;;;;7.43;2.90;;;;;;;;;;4968387;28;20481;-65
2023/09/29 14:02:57;;;;;;;7.65;3.00;;;;;;;;;;4962366;28;20584;-68
2023/09/29 14:05:25;;;;;;;5.88;3.10;;;;;;;;;;4964304;28;20396;-63
2023/09/29 14:07:52;;;;;;;4.70;2.92;;;;;;;;;;4969193;28;20590;-64
2023/09/29 14:10:19;;;;;;;5.25;2.72;;;;;;;;;;4962727;28;20139;-63
2023/09/29 14:12:47;;;;;;;5.43;3.45;;;;;;;;;;4973996;28;20470;-65
2023/09/29 14:15:14;;;;;;;5.53;3.28;;;;;;;;;;4962543;28;20066;-64
2023/09/29 14:17:41;;;;;;;6.05;3.13;;;;;;;;;;4962757;28;20137;-65
2023/09/29 14:20:09;;;;;;;4.80;2.92;;;;;;;;;;4972366;28;20044;-65
2023/09/29 14:22:36;;;;;;;6.05;3.10;;;;;;;;;;4969981;28;20097;-66
2023/09/29 14:25:02;;;;;;;5.00;2.97;;;;;;;;;;4970068;28;20047;-63
2023/09/29 14:27:29;;;;;;;6.95;3.38;;;;;;;;;;4969959;28;20046;-65
2023/09/29 14:29:57;;;;;;;5.93;3.00;;;;;;;;;;4966007;28;20061;-64
2023/09/29 14:32:24;;;;;;;6.32;3.30;;;;;;;;;;4970272;28;20134;-65
2023/09/29 14:34:51;;;;;;;6.18;3.05;;;;;;;;;;4968822;28;20479;-64
2023/09/29 14:37:18;;;;;;;6.05;3.47;;;;;;;;;;4967045;28;20086;-65
2023/09/29 14:39:45;;;;;;;6.00;3.03;;;;;;;;;;4965623;28;20114;-65
2023/09/29 14:42:11;;;;;;;7.13;3.10;;;;;;;;;;4968980;28;20312;-64